sensor_id;sensor_type;location;lat;lon;timestamp;P1;durP1;ratioP1;P2;durP2;ratioP2
16998;SDS011;10211;49.476;11.010;2023-08-21T00:00:07;7.90;;;7.07;;
16998;SDS011;10211;49.476;11.010;2023-08-21T00:02:34;8.00;;;7.05;;
16998;SDS011;10211;49.476;11.010;2023-08-21T00:05:01;7.27;;;6.57;;
16998;SDS011;10211;49.476;11.010;2023-08-21T00:07:28;8.93;;;7.40;;
16998;SDS011;10211;49.476;11.010;2023-08-21T00:09:56;8.93;;;7.90;;
16998;SDS011;10211;49.476;11.010;2023-08-21T00:12:22;10.02;;;8.00;;
16998;SDS011;10211;49.476;11.010;2023-08-21T00:14:49;9.30;;;6.93;;
16998;SDS011;10211;49.476;11.010;2023-08-21T00:17:16;8.60;;;7.73;;
16998;SDS011;10211;49.476;11.010;2023-08-21T00:19:43;7.15;;;6.47;;
16998;SDS011;10211;49.476;11.010;2023-08-21T00:22:09;8.32;;;7.53;;
16998;SDS011;10211;49.476;11.010;2023-08-21T00:24:36;9.75;;;7.03;;
16998;SDS011;10211;49.476;11.010;2023-08-21T00:27:04;9.60;;;7.57;;
16998;SDS011;10211;49.476;11.010;2023-08-21T00:29:31;7.72;;;7.03;;
16998;SDS011;10211;49.476;11.010;2023-08-21T00:31:58;8.85;;;7.78;;
16998;SDS011;10211;49.476;11.010;2023-08-21T00:34:24;8.57;;;7.68;;
16998;SDS011;10211;49.476;11.010;2023-08-21T00:36:51;8.93;;;7.37;;
16998;SDS011;10211;49.476;11.010;2023-08-21T00:39:18;10.37;;;7.03;;
16998;SDS011;10211;49.476;11.010;2023-08-21T00:41:44;7.53;;;6.82;;
16998;SDS011;10211;49.476;11.010;2023-08-21T00:44:12;7.90;;;6.78;;
16998;SDS011;10211;49.476;11.010;2023-08-21T00:46:39;7.53;;;6.10;;
16998;SDS011;10211;49.476;11.010;2023-08-21T00:49:06;10.50;;;7.97;;
16998;SDS011;10211;49.476;11.010;2023-08-21T00:51:33;11.07;;;7.88;;
16998;SDS011;10211;49.476;11.010;2023-08-21T00:54:00;9.85;;;7.30;;
16998;SDS011;10211;49.476;11.010;2023-08-21T00:56:27;9.00;;;7.38;;
16998;SDS011;10211;49.476;11.010;2023-08-21T00:58:54;8.45;;;7.35;;
16998;SDS011;10211;49.476;11.010;2023-08-21T01:01:23;8.30;;;7.60;;
16998;SDS011;10211;49.476;11.010;2023-08-21T01:03:50;10.23;;;8.15;;
16998;SDS011;10211;49.476;11.010;2023-08-21T01:06:18;9.50;;;8.60;;
16998;SDS011;10211;49.476;11.010;2023-08-21T01:08:46;9.25;;;8.10;;
16998;SDS011;10211;49.476;11.010;2023-08-21T01:11:25;10.20;;;8.40;;
16998;SDS011;10211;49.476;11.010;2023-08-21T01:13:59;12.00;;;7.90;;
16998;SDS011;10211;49.476;11.010;2023-08-21T01:16:34;9.02;;;8.13;;
16998;SDS011;10211;49.476;11.010;2023-08-21T01:19:02;8.10;;;7.28;;
16998;SDS011;10211;49.476;11.010;2023-08-21T01:21:34;9.30;;;8.40;;
16998;SDS011;10211;49.476;11.010;2023-08-21T01:24:02;9.10;;;8.20;;
16998;SDS011;10211;49.476;11.010;2023-08-21T01:26:29;10.30;;;8.97;;
16998;SDS011;10211;49.476;11.010;2023-08-21T01:28:55;9.63;;;8.73;;
16998;SDS011;10211;49.476;11.010;2023-08-21T01:31:24;8.93;;;7.78;;
16998;SDS011;10211;49.476;11.010;2023-08-21T01:33:55;10.65;;;8.63;;
16998;SDS011;10211;49.476;11.010;2023-08-21T01:36:24;9.40;;;8.52;;
16998;SDS011;10211;49.476;11.010;2023-08-21T01:38:51;9.63;;;8.73;;
16998;SDS011;10211;49.476;11.010;2023-08-21T01:41:20;9.38;;;7.93;;
16998;SDS011;10211;49.476;11.010;2023-08-21T01:43:49;10.20;;;9.07;;
16998;SDS011;10211;49.476;11.010;2023-08-21T01:46:16;9.53;;;8.43;;
16998;SDS011;10211;49.476;11.010;2023-08-21T01:48:43;11.02;;;8.73;;
16998;SDS011;10211;49.476;11.010;2023-08-21T01:51:09;9.60;;;8.25;;
16998;SDS011;10211;49.476;11.010;2023-08-21T01:53:36;9.57;;;8.57;;
16998;SDS011;10211;49.476;11.010;2023-08-21T01:56:03;11.18;;;8.68;;
16998;SDS011;10211;49.476;11.010;2023-08-21T01:58:31;11.85;;;9.20;;
16998;SDS011;10211;49.476;11.010;2023-08-21T02:00:58;9.98;;;8.43;;
16998;SDS011;10211;49.476;11.010;2023-08-21T02:03:24;10.10;;;9.10;;
16998;SDS011;10211;49.476;11.010;2023-08-21T02:05:55;9.73;;;8.83;;
16998;SDS011;10211;49.476;11.010;2023-08-21T02:08:22;10.55;;;9.25;;
16998;SDS011;10211;49.476;11.010;2023-08-21T02:10:52;10.87;;;9.30;;
16998;SDS011;10211;49.476;11.010;2023-08-21T02:13:19;10.73;;;9.57;;
16998;SDS011;10211;49.476;11.010;2023-08-21T02:15:47;10.43;;;9.40;;
16998;SDS011;10211;49.476;11.010;2023-08-21T02:18:14;11.65;;;9.55;;
16998;SDS011;10211;49.476;11.010;2023-08-21T02:20:41;11.50;;;9.40;;
16998;SDS011;10211;49.476;11.010;2023-08-21T02:23:08;11.75;;;10.00;;
16998;SDS011;10211;49.476;11.010;2023-08-21T02:25:35;10.40;;;9.40;;
16998;SDS011;10211;49.476;11.010;2023-08-21T02:28:02;9.47;;;8.57;;
16998;SDS011;10211;49.476;11.010;2023-08-21T02:30:29;10.80;;;9.80;;
16998;SDS011;10211;49.476;11.010;2023-08-21T02:32:57;10.63;;;9.30;;
16998;SDS011;10211;49.476;11.010;2023-08-21T02:35:23;11.80;;;10.60;;
16998;SDS011;10211;49.476;11.010;2023-08-21T02:37:50;11.40;;;10.20;;
16998;SDS011;10211;49.476;11.010;2023-08-21T02:40:17;12.60;;;10.35;;
16998;SDS011;10211;49.476;11.010;2023-08-21T02:42:44;13.63;;;10.73;;
16998;SDS011;10211;49.476;11.010;2023-08-21T02:45:10;11.93;;;10.83;;
16998;SDS011;10211;49.476;11.010;2023-08-21T02:47:37;12.57;;;10.67;;
16998;SDS011;10211;49.476;11.010;2023-08-21T02:50:07;11.60;;;10.33;;
16998;SDS011;10211;49.476;11.010;2023-08-21T02:52:35;13.47;;;10.27;;
16998;SDS011;10211;49.476;11.010;2023-08-21T02:55:02;14.50;;;11.60;;
16998;SDS011;10211;49.476;11.010;2023-08-21T02:57:30;13.80;;;10.93;;
16998;SDS011;10211;49.476;11.010;2023-08-21T02:59:56;12.00;;;10.77;;
16998;SDS011;10211;49.476;11.010;2023-08-21T03:02:23;12.37;;;11.17;;
16998;SDS011;10211;49.476;11.010;2023-08-21T03:04:50;16.43;;;11.97;;
16998;SDS011;10211;49.476;11.010;2023-08-21T03:07:18;13.67;;;12.27;;
16998;SDS011;10211;49.476;11.010;2023-08-21T03:09:45;13.77;;;12.43;;
16998;SDS011;10211;49.476;11.010;2023-08-21T03:12:12;17.07;;;12.27;;
16998;SDS011;10211;49.476;11.010;2023-08-21T03:14:39;12.67;;;11.37;;
16998;SDS011;10211;49.476;11.010;2023-08-21T03:17:06;14.27;;;11.73;;
16998;SDS011;10211;49.476;11.010;2023-08-21T03:19:33;15.53;;;12.57;;
16998;SDS011;10211;49.476;11.010;2023-08-21T03:22:00;13.63;;;10.70;;
16998;SDS011;10211;49.476;11.010;2023-08-21T03:24:28;12.37;;;11.27;;
16998;SDS011;10211;49.476;11.010;2023-08-21T03:26:54;15.90;;;12.10;;
16998;SDS011;10211;49.476;11.010;2023-08-21T03:29:21;13.87;;;11.40;;
16998;SDS011;10211;49.476;11.010;2023-08-21T03:31:48;13.23;;;10.13;;
16998;SDS011;10211;49.476;11.010;2023-08-21T03:34:15;12.80;;;11.30;;
16998;SDS011;10211;49.476;11.010;2023-08-21T03:36:42;12.03;;;10.83;;
16998;SDS011;10211;49.476;11.010;2023-08-21T03:39:09;11.97;;;10.50;;
16998;SDS011;10211;49.476;11.010;2023-08-21T03:41:37;12.33;;;11.13;;
16998;SDS011;10211;49.476;11.010;2023-08-21T03:44:04;13.23;;;11.83;;
16998;SDS011;10211;49.476;11.010;2023-08-21T03:46:30;11.30;;;10.20;;
16998;SDS011;10211;49.476;11.010;2023-08-21T03:48:57;12.50;;;11.33;;
16998;SDS011;10211;49.476;11.010;2023-08-21T03:51:24;16.70;;;11.73;;
16998;SDS011;10211;49.476;11.010;2023-08-21T03:53:51;14.43;;;12.20;;
16998;SDS011;10211;49.476;11.010;2023-08-21T03:56:17;13.77;;;11.70;;
16998;SDS011;10211;49.476;11.010;2023-08-21T03:58:45;12.63;;;11.40;;
16998;SDS011;10211;49.476;11.010;2023-08-21T04:01:13;14.17;;;11.67;;
16998;SDS011;10211;49.476;11.010;2023-08-21T04:03:40;13.53;;;11.77;;
16998;SDS011;10211;49.476;11.010;2023-08-21T04:06:07;17.77;;;13.13;;
16998;SDS011;10211;49.476;11.010;2023-08-21T04:08:34;15.40;;;13.83;;
16998;SDS011;10211;49.476;11.010;2023-08-21T04:11:01;16.60;;;13.03;;
16998;SDS011;10211;49.476;11.010;2023-08-21T04:13:28;14.83;;;12.57;;
16998;SDS011;10211;49.476;11.010;2023-08-21T04:15:56;18.03;;;13.10;;
16998;SDS011;10211;49.476;11.010;2023-08-21T04:18:22;16.90;;;12.83;;
16998;SDS011;10211;49.476;11.010;2023-08-21T04:20:49;17.97;;;15.17;;
16998;SDS011;10211;49.476;11.010;2023-08-21T04:23:16;19.33;;;15.67;;
16998;SDS011;10211;49.476;11.010;2023-08-21T04:25:43;19.77;;;14.57;;
16998;SDS011;10211;49.476;11.010;2023-08-21T04:28:10;16.70;;;14.60;;
16998;SDS011;10211;49.476;11.010;2023-08-21T04:30:39;22.17;;;16.03;;
16998;SDS011;10211;49.476;11.010;2023-08-21T04:33:07;17.43;;;14.90;;
16998;SDS011;10211;49.476;11.010;2023-08-21T04:35:36;16.37;;;14.07;;
16998;SDS011;10211;49.476;11.010;2023-08-21T04:38:03;16.87;;;14.13;;
16998;SDS011;10211;49.476;11.010;2023-08-21T04:40:30;18.20;;;15.17;;
16998;SDS011;10211;49.476;11.010;2023-08-21T04:42:57;16.67;;;14.87;;
16998;SDS011;10211;49.476;11.010;2023-08-21T04:45:25;21.97;;;15.10;;
16998;SDS011;10211;49.476;11.010;2023-08-21T04:47:51;18.20;;;14.27;;
16998;SDS011;10211;49.476;11.010;2023-08-21T04:50:20;21.60;;;15.90;;
16998;SDS011;10211;49.476;11.010;2023-08-21T04:52:46;16.70;;;14.90;;
16998;SDS011;10211;49.476;11.010;2023-08-21T04:55:14;19.27;;;15.20;;
16998;SDS011;10211;49.476;11.010;2023-08-21T04:57:41;18.00;;;15.73;;
16998;SDS011;10211;49.476;11.010;2023-08-21T05:00:08;19.27;;;16.03;;
16998;SDS011;10211;49.476;11.010;2023-08-21T05:02:35;18.73;;;15.67;;
16998;SDS011;10211;49.476;11.010;2023-08-21T05:05:02;16.90;;;15.03;;
16998;SDS011;10211;49.476;11.010;2023-08-21T05:07:31;17.77;;;15.83;;
16998;SDS011;10211;49.476;11.010;2023-08-21T05:09:58;16.77;;;15.07;;
16998;SDS011;10211;49.476;11.010;2023-08-21T05:12:25;22.63;;;15.23;;
16998;SDS011;10211;49.476;11.010;2023-08-21T05:14:52;19.00;;;15.67;;
16998;SDS011;10211;49.476;11.010;2023-08-21T05:17:19;16.40;;;14.67;;
16998;SDS011;10211;49.476;11.010;2023-08-21T05:19:46;19.50;;;16.23;;
16998;SDS011;10211;49.476;11.010;2023-08-21T05:22:13;15.93;;;14.30;;
16998;SDS011;10211;49.476;11.010;2023-08-21T05:24:41;19.20;;;15.73;;
16998;SDS011;10211;49.476;11.010;2023-08-21T05:27:07;17.97;;;15.03;;
16998;SDS011;10211;49.476;11.010;2023-08-21T05:29:34;17.03;;;14.97;;
16998;SDS011;10211;49.476;11.010;2023-08-21T05:32:01;17.10;;;15.30;;
16998;SDS011;10211;49.476;11.010;2023-08-21T05:34:29;15.57;;;13.97;;
16998;SDS011;10211;49.476;11.010;2023-08-21T05:36:55;18.27;;;15.90;;
16998;SDS011;10211;49.476;11.010;2023-08-21T05:39:22;15.98;;;14.30;;
16998;SDS011;10211;49.476;11.010;2023-08-21T05:41:50;23.02;;;16.25;;
16998;SDS011;10211;49.476;11.010;2023-08-21T05:44:17;20.48;;;14.88;;
16998;SDS011;10211;49.476;11.010;2023-08-21T05:46:44;20.97;;;16.27;;
16998;SDS011;10211;49.476;11.010;2023-08-21T05:49:11;16.70;;;13.98;;
16998;SDS011;10211;49.476;11.010;2023-08-21T05:51:38;17.23;;;14.90;;
16998;SDS011;10211;49.476;11.010;2023-08-21T05:54:05;17.70;;;15.07;;
16998;SDS011;10211;49.476;11.010;2023-08-21T05:56:31;20.52;;;16.10;;
16998;SDS011;10211;49.476;11.010;2023-08-21T05:58:59;17.60;;;15.30;;
16998;SDS011;10211;49.476;11.010;2023-08-21T06:01:26;21.17;;;14.20;;
16998;SDS011;10211;49.476;11.010;2023-08-21T06:03:53;19.77;;;14.75;;
16998;SDS011;10211;49.476;11.010;2023-08-21T06:06:19;18.10;;;15.73;;
16998;SDS011;10211;49.476;11.010;2023-08-21T06:08:46;19.65;;;15.30;;
16998;SDS011;10211;49.476;11.010;2023-08-21T06:11:13;17.95;;;16.02;;
16998;SDS011;10211;49.476;11.010;2023-08-21T06:13:40;22.77;;;15.15;;
16998;SDS011;10211;49.476;11.010;2023-08-21T06:16:08;19.50;;;15.48;;
16998;SDS011;10211;49.476;11.010;2023-08-21T06:18:35;16.90;;;15.00;;
16998;SDS011;10211;49.476;11.010;2023-08-21T06:21:02;19.20;;;14.77;;
16998;SDS011;10211;49.476;11.010;2023-08-21T06:23:28;16.92;;;14.82;;
16998;SDS011;10211;49.476;11.010;2023-08-21T06:25:55;16.80;;;15.10;;
16998;SDS011;10211;49.476;11.010;2023-08-21T06:28:22;19.23;;;15.25;;
16998;SDS011;10211;49.476;11.010;2023-08-21T06:30:55;17.10;;;15.30;;
16998;SDS011;10211;49.476;11.010;2023-08-21T06:33:24;22.50;;;14.50;;
16998;SDS011;10211;49.476;11.010;2023-08-21T06:35:50;13.43;;;12.13;;
16998;SDS011;10211;49.476;11.010;2023-08-21T06:38:17;15.77;;;14.10;;
16998;SDS011;10211;49.476;11.010;2023-08-21T06:40:44;18.83;;;15.10;;
16998;SDS011;10211;49.476;11.010;2023-08-21T06:43:11;17.25;;;13.65;;
16998;SDS011;10211;49.476;11.010;2023-08-21T06:45:38;18.77;;;14.80;;
16998;SDS011;10211;49.476;11.010;2023-08-21T06:48:05;16.48;;;14.65;;
16998;SDS011;10211;49.476;11.010;2023-08-21T06:50:33;15.07;;;13.48;;
16998;SDS011;10211;49.476;11.010;2023-08-21T06:53:00;16.05;;;14.50;;
16998;SDS011;10211;49.476;11.010;2023-08-21T06:55:26;17.40;;;14.68;;
16998;SDS011;10211;49.476;11.010;2023-08-21T06:57:53;17.25;;;14.95;;
16998;SDS011;10211;49.476;11.010;2023-08-21T07:00:22;20.90;;;14.90;;
16998;SDS011;10211;49.476;11.010;2023-08-21T07:02:48;18.83;;;12.82;;
16998;SDS011;10211;49.476;11.010;2023-08-21T07:05:15;15.25;;;13.75;;
16998;SDS011;10211;49.476;11.010;2023-08-21T07:07:43;17.17;;;13.57;;
16998;SDS011;10211;49.476;11.010;2023-08-21T07:10:10;14.63;;;12.63;;
16998;SDS011;10211;49.476;11.010;2023-08-21T07:12:37;13.48;;;12.18;;
16998;SDS011;10211;49.476;11.010;2023-08-21T07:15:04;12.77;;;11.55;;
16998;SDS011;10211;49.476;11.010;2023-08-21T07:17:31;14.23;;;11.90;;
16998;SDS011;10211;49.476;11.010;2023-08-21T07:19:58;16.30;;;13.18;;
16998;SDS011;10211;49.476;11.010;2023-08-21T07:22:25;14.95;;;12.18;;
16998;SDS011;10211;49.476;11.010;2023-08-21T07:24:53;19.98;;;13.10;;
16998;SDS011;10211;49.476;11.010;2023-08-21T07:27:20;13.10;;;11.52;;
16998;SDS011;10211;49.476;11.010;2023-08-21T07:29:47;16.38;;;12.35;;
16998;SDS011;10211;49.476;11.010;2023-08-21T07:32:13;15.93;;;12.48;;
16998;SDS011;10211;49.476;11.010;2023-08-21T07:34:40;13.98;;;12.48;;
16998;SDS011;10211;49.476;11.010;2023-08-21T07:37:07;16.10;;;12.45;;
16998;SDS011;10211;49.476;11.010;2023-08-21T07:39:34;15.38;;;13.45;;
16998;SDS011;10211;49.476;11.010;2023-08-21T07:42:02;13.98;;;11.98;;
16998;SDS011;10211;49.476;11.010;2023-08-21T07:44:29;13.70;;;12.25;;
16998;SDS011;10211;49.476;11.010;2023-08-21T07:46:56;14.77;;;12.80;;
16998;SDS011;10211;49.476;11.010;2023-08-21T07:49:23;15.15;;;11.60;;
16998;SDS011;10211;49.476;11.010;2023-08-21T07:51:49;12.95;;;11.68;;
16998;SDS011;10211;49.476;11.010;2023-08-21T07:54:16;15.23;;;11.10;;
16998;SDS011;10211;49.476;11.010;2023-08-21T07:56:43;12.52;;;11.40;;
16998;SDS011;10211;49.476;11.010;2023-08-21T07:59:11;19.38;;;10.93;;
16998;SDS011;10211;49.476;11.010;2023-08-21T08:01:38;13.50;;;10.27;;
16998;SDS011;10211;49.476;11.010;2023-08-21T08:04:05;10.88;;;9.77;;
16998;SDS011;10211;49.476;11.010;2023-08-21T08:06:31;11.80;;;10.68;;
16998;SDS011;10211;49.476;11.010;2023-08-21T08:08:58;11.47;;;10.20;;
16998;SDS011;10211;49.476;11.010;2023-08-21T08:11:25;9.90;;;8.77;;
16998;SDS011;10211;49.476;11.010;2023-08-21T08:13:52;14.35;;;9.70;;
16998;SDS011;10211;49.476;11.010;2023-08-21T08:16:20;10.85;;;8.55;;
16998;SDS011;10211;49.476;11.010;2023-08-21T08:18:46;9.48;;;8.15;;
16998;SDS011;10211;49.476;11.010;2023-08-21T08:21:13;8.90;;;7.72;;
16998;SDS011;10211;49.476;11.010;2023-08-21T08:23:40;8.98;;;7.82;;
16998;SDS011;10211;49.476;11.010;2023-08-21T08:26:07;8.85;;;8.13;;
16998;SDS011;10211;49.476;11.010;2023-08-21T08:28:34;12.50;;;9.70;;
16998;SDS011;10211;49.476;11.010;2023-08-21T08:31:01;10.48;;;8.75;;
16998;SDS011;10211;49.476;11.010;2023-08-21T08:33:29;7.95;;;7.15;;
16998;SDS011;10211;49.476;11.010;2023-08-21T08:35:56;13.02;;;7.93;;
16998;SDS011;10211;49.476;11.010;2023-08-21T08:38:22;9.10;;;8.23;;
16998;SDS011;10211;49.476;11.010;2023-08-21T08:40:49;7.85;;;7.15;;
16998;SDS011;10211;49.476;11.010;2023-08-21T08:43:19;8.27;;;7.47;;
16998;SDS011;10211;49.476;11.010;2023-08-21T08:45:47;11.38;;;8.90;;
16998;SDS011;10211;49.476;11.010;2023-08-21T08:48:16;8.80;;;8.00;;
16998;SDS011;10211;49.476;11.010;2023-08-21T08:50:47;12.95;;;7.50;;
16998;SDS011;10211;49.476;11.010;2023-08-21T08:53:14;8.63;;;7.80;;
16998;SDS011;10211;49.476;11.010;2023-08-21T08:55:42;8.48;;;7.68;;
16998;SDS011;10211;49.476;11.010;2023-08-21T08:58:09;9.70;;;8.05;;
16998;SDS011;10211;49.476;11.010;2023-08-21T09:00:36;8.15;;;7.38;;
16998;SDS011;10211;49.476;11.010;2023-08-21T09:03:04;11.07;;;8.45;;
16998;SDS011;10211;49.476;11.010;2023-08-21T09:05:32;8.63;;;7.93;;
16998;SDS011;10211;49.476;11.010;2023-08-21T09:08:08;10.38;;;8.70;;
16998;SDS011;10211;49.476;11.010;2023-08-21T09:10:36;9.73;;;8.80;;
16998;SDS011;10211;49.476;11.010;2023-08-21T09:13:08;10.00;;;8.98;;
16998;SDS011;10211;49.476;11.010;2023-08-21T09:15:35;9.73;;;8.80;;
16998;SDS011;10211;49.476;11.010;2023-08-21T09:18:02;10.68;;;9.40;;
16998;SDS011;10211;49.476;11.010;2023-08-21T09:20:34;8.95;;;8.13;;
16998;SDS011;10211;49.476;11.010;2023-08-21T09:23:01;9.43;;;8.52;;
16998;SDS011;10211;49.476;11.010;2023-08-21T09:25:30;10.18;;;8.85;;
16998;SDS011;10211;49.476;11.010;2023-08-21T09:28:00;10.23;;;8.98;;
16998;SDS011;10211;49.476;11.010;2023-08-21T09:30:42;11.52;;;8.30;;
16998;SDS011;10211;49.476;11.010;2023-08-21T09:33:10;11.95;;;8.68;;
16998;SDS011;10211;49.476;11.010;2023-08-21T09:35:37;9.75;;;8.32;;
16998;SDS011;10211;49.476;11.010;2023-08-21T09:38:04;9.65;;;8.70;;
16998;SDS011;10211;49.476;11.010;2023-08-21T09:40:33;9.65;;;7.97;;
16998;SDS011;10211;49.476;11.010;2023-08-21T09:43:00;9.52;;;8.57;;
16998;SDS011;10211;49.476;11.010;2023-08-21T09:45:30;9.20;;;8.30;;
16998;SDS011;10211;49.476;11.010;2023-08-21T09:47:57;8.95;;;8.13;;
16998;SDS011;10211;49.476;11.010;2023-08-21T09:50:25;10.25;;;8.07;;
16998;SDS011;10211;49.476;11.010;2023-08-21T09:52:54;9.65;;;7.80;;
16998;SDS011;10211;49.476;11.010;2023-08-21T09:55:22;9.32;;;7.68;;
16998;SDS011;10211;49.476;11.010;2023-08-21T09:57:52;9.02;;;7.05;;
16998;SDS011;10211;49.476;11.010;2023-08-21T10:00:23;7.82;;;6.78;;
16998;SDS011;10211;49.476;11.010;2023-08-21T10:02:52;10.23;;;7.20;;
16998;SDS011;10211;49.476;11.010;2023-08-21T10:05:20;8.95;;;6.93;;
16998;SDS011;10211;49.476;11.010;2023-08-21T10:07:48;7.65;;;6.82;;
16998;SDS011;10211;49.476;11.010;2023-08-21T10:10:16;7.40;;;6.70;;
16998;SDS011;10211;49.476;11.010;2023-08-21T10:12:43;12.63;;;6.50;;
16998;SDS011;10211;49.476;11.010;2023-08-21T10:15:13;25.70;;;7.85;;
16998;SDS011;10211;49.476;11.010;2023-08-21T10:17:41;43.67;;;10.15;;
16998;SDS011;10211;49.476;11.010;2023-08-21T10:20:10;39.90;;;7.75;;
16998;SDS011;10211;49.476;11.010;2023-08-21T10:23:07;8.20;;;6.20;;
16998;SDS011;10211;49.476;11.010;2023-08-21T10:25:35;6.30;;;5.70;;
16998;SDS011;10211;49.476;11.010;2023-08-21T10:28:08;6.57;;;6.07;;
16998;SDS011;10211;49.476;11.010;2023-08-21T10:30:36;6.47;;;5.53;;
16998;SDS011;10211;49.476;11.010;2023-08-21T10:33:03;9.10;;;6.38;;
16998;SDS011;10211;49.476;11.010;2023-08-21T10:50:52;6.22;;;4.50;;
16998;SDS011;10211;49.476;11.010;2023-08-21T10:53:19;4.50;;;4.13;;
16998;SDS011;10211;49.476;11.010;2023-08-21T10:55:52;5.15;;;4.22;;
16998;SDS011;10211;49.476;11.010;2023-08-21T10:58:19;6.43;;;3.78;;
16998;SDS011;10211;49.476;11.010;2023-08-21T11:00:46;4.53;;;4.15;;
16998;SDS011;10211;49.476;11.010;2023-08-21T11:03:15;4.75;;;4.30;;
16998;SDS011;10211;49.476;11.010;2023-08-21T11:05:43;4.22;;;3.92;;
16998;SDS011;10211;49.476;11.010;2023-08-21T11:08:12;4.10;;;3.88;;
16998;SDS011;10211;49.476;11.010;2023-08-21T11:10:46;4.82;;;4.35;;
16998;SDS011;10211;49.476;11.010;2023-08-21T11:13:12;4.97;;;4.47;;
16998;SDS011;10211;49.476;11.010;2023-08-21T11:15:39;4.63;;;4.32;;
16998;SDS011;10211;49.476;11.010;2023-08-21T11:18:06;6.00;;;4.50;;
16998;SDS011;10211;49.476;11.010;2023-08-21T11:20:33;4.82;;;4.40;;
16998;SDS011;10211;49.476;11.010;2023-08-21T11:23:02;4.95;;;4.57;;
16998;SDS011;10211;49.476;11.010;2023-08-21T11:25:33;4.40;;;4.10;;
16998;SDS011;10211;49.476;11.010;2023-08-21T11:28:00;4.25;;;3.92;;
16998;SDS011;10211;49.476;11.010;2023-08-21T11:30:27;4.03;;;3.60;;
16998;SDS011;10211;49.476;11.010;2023-08-21T11:33:06;4.60;;;4.20;;
16998;SDS011;10211;49.476;11.010;2023-08-21T11:35:33;3.95;;;3.63;;
16998;SDS011;10211;49.476;11.010;2023-08-21T11:38:00;4.40;;;3.72;;
16998;SDS011;10211;49.476;11.010;2023-08-21T11:40:27;4.07;;;3.67;;
16998;SDS011;10211;49.476;11.010;2023-08-21T11:42:59;6.57;;;4.07;;
16998;SDS011;10211;49.476;11.010;2023-08-21T11:45:26;5.10;;;3.85;;
16998;SDS011;10211;49.476;11.010;2023-08-21T11:47:55;4.57;;;4.18;;
16998;SDS011;10211;49.476;11.010;2023-08-21T11:50:22;4.95;;;4.38;;
16998;SDS011;10211;49.476;11.010;2023-08-21T11:52:50;5.20;;;4.10;;
16998;SDS011;10211;49.476;11.010;2023-08-21T11:55:18;4.65;;;4.18;;
16998;SDS011;10211;49.476;11.010;2023-08-21T11:57:48;4.65;;;4.25;;
16998;SDS011;10211;49.476;11.010;2023-08-21T12:00:17;5.10;;;4.53;;
16998;SDS011;10211;49.476;11.010;2023-08-21T12:02:53;6.47;;;4.28;;
16998;SDS011;10211;49.476;11.010;2023-08-21T12:05:21;4.72;;;4.43;;
16998;SDS011;10211;49.476;11.010;2023-08-21T12:07:48;4.88;;;4.50;;
16998;SDS011;10211;49.476;11.010;2023-08-21T12:10:15;5.63;;;4.35;;
16998;SDS011;10211;49.476;11.010;2023-08-21T12:12:48;4.85;;;4.45;;
16998;SDS011;10211;49.476;11.010;2023-08-21T12:15:16;5.32;;;4.63;;
16998;SDS011;10211;49.476;11.010;2023-08-21T12:17:43;4.70;;;4.10;;
16998;SDS011;10211;49.476;11.010;2023-08-21T12:20:10;4.95;;;4.53;;
16998;SDS011;10211;49.476;11.010;2023-08-21T12:22:37;4.82;;;4.43;;
16998;SDS011;10211;49.476;11.010;2023-08-21T12:25:04;4.32;;;3.92;;
16998;SDS011;10211;49.476;11.010;2023-08-21T12:27:32;10.65;;;4.55;;
16998;SDS011;10211;49.476;11.010;2023-08-21T12:29:59;3.95;;;3.70;;
16998;SDS011;10211;49.476;11.010;2023-08-21T12:32:27;5.55;;;4.57;;
16998;SDS011;10211;49.476;11.010;2023-08-21T12:34:54;5.60;;;4.10;;
16998;SDS011;10211;49.476;11.010;2023-08-21T12:37:20;5.35;;;4.18;;
16998;SDS011;10211;49.476;11.010;2023-08-21T12:39:47;5.50;;;4.70;;
16998;SDS011;10211;49.476;11.010;2023-08-21T12:42:14;4.80;;;4.40;;
16998;SDS011;10211;49.476;11.010;2023-08-21T12:44:40;5.32;;;4.03;;
16998;SDS011;10211;49.476;11.010;2023-08-21T12:47:07;4.85;;;4.28;;
16998;SDS011;10211;49.476;11.010;2023-08-21T12:49:35;4.20;;;3.90;;
16998;SDS011;10211;49.476;11.010;2023-08-21T12:52:02;5.80;;;4.25;;
16998;SDS011;10211;49.476;11.010;2023-08-21T12:54:30;4.45;;;4.05;;
16998;SDS011;10211;49.476;11.010;2023-08-21T12:56:56;7.50;;;4.32;;
16998;SDS011;10211;49.476;11.010;2023-08-21T12:59:23;4.75;;;4.22;;
16998;SDS011;10211;49.476;11.010;2023-08-21T13:01:50;6.85;;;4.47;;
16998;SDS011;10211;49.476;11.010;2023-08-21T13:04:17;6.15;;;3.67;;
16998;SDS011;10211;49.476;11.010;2023-08-21T13:06:45;4.63;;;3.80;;
16998;SDS011;10211;49.476;11.010;2023-08-21T13:09:11;3.65;;;3.45;;
16998;SDS011;10211;49.476;11.010;2023-08-21T13:11:38;3.92;;;3.63;;
16998;SDS011;10211;49.476;11.010;2023-08-21T13:14:05;6.18;;;3.88;;
16998;SDS011;10211;49.476;11.010;2023-08-21T13:16:31;3.67;;;3.20;;
16998;SDS011;10211;49.476;11.010;2023-08-21T13:18:58;4.38;;;3.97;;
16998;SDS011;10211;49.476;11.010;2023-08-21T13:21:25;6.53;;;3.42;;
16998;SDS011;10211;49.476;11.010;2023-08-21T13:23:53;4.35;;;3.45;;
16998;SDS011;10211;49.476;11.010;2023-08-21T13:26:20;4.00;;;3.30;;
16998;SDS011;10211;49.476;11.010;2023-08-21T13:28:46;7.55;;;3.85;;
16998;SDS011;10211;49.476;11.010;2023-08-21T13:31:13;7.28;;;4.05;;
16998;SDS011;10211;49.476;11.010;2023-08-21T13:33:46;4.18;;;3.78;;
16998;SDS011;10211;49.476;11.010;2023-08-21T13:36:14;5.00;;;3.60;;
16998;SDS011;10211;49.476;11.010;2023-08-21T13:38:41;4.20;;;3.75;;
16998;SDS011;10211;49.476;11.010;2023-08-21T13:41:09;4.00;;;3.67;;
16998;SDS011;10211;49.476;11.010;2023-08-21T13:43:36;10.18;;;3.95;;
16998;SDS011;10211;49.476;11.010;2023-08-21T13:46:03;6.50;;;4.43;;
16998;SDS011;10211;49.476;11.010;2023-08-21T13:48:30;5.15;;;3.30;;
16998;SDS011;10211;49.476;11.010;2023-08-21T13:50:57;5.75;;;3.72;;
16998;SDS011;10211;49.476;11.010;2023-08-21T13:53:23;5.47;;;3.75;;
16998;SDS011;10211;49.476;11.010;2023-08-21T13:55:50;4.20;;;3.88;;
16998;SDS011;10211;49.476;11.010;2023-08-21T13:58:18;4.45;;;4.05;;
16998;SDS011;10211;49.476;11.010;2023-08-21T14:00:46;4.25;;;3.85;;
16998;SDS011;10211;49.476;11.010;2023-08-21T14:03:13;5.93;;;3.80;;
16998;SDS011;10211;49.476;11.010;2023-08-21T14:05:40;4.95;;;3.55;;
16998;SDS011;10211;49.476;11.010;2023-08-21T14:08:06;4.05;;;3.75;;
16998;SDS011;10211;49.476;11.010;2023-08-21T14:10:34;4.68;;;3.60;;
16998;SDS011;10211;49.476;11.010;2023-08-21T14:13:00;4.85;;;3.75;;
16998;SDS011;10211;49.476;11.010;2023-08-21T14:15:30;4.57;;;4.00;;
16998;SDS011;10211;49.476;11.010;2023-08-21T14:17:56;7.03;;;3.85;;
16998;SDS011;10211;49.476;11.010;2023-08-21T14:20:23;4.63;;;4.18;;
16998;SDS011;10211;49.476;11.010;2023-08-21T14:22:50;5.57;;;3.42;;
16998;SDS011;10211;49.476;11.010;2023-08-21T14:25:16;4.47;;;3.92;;
16998;SDS011;10211;49.476;11.010;2023-08-21T14:27:43;4.97;;;3.80;;
16998;SDS011;10211;49.476;11.010;2023-08-21T14:30:10;4.78;;;4.35;;
16998;SDS011;10211;49.476;11.010;2023-08-21T14:32:40;5.32;;;3.70;;
16998;SDS011;10211;49.476;11.010;2023-08-21T14:35:07;5.80;;;3.72;;
16998;SDS011;10211;49.476;11.010;2023-08-21T14:37:34;4.40;;;4.00;;
16998;SDS011;10211;49.476;11.010;2023-08-21T14:40:01;6.15;;;3.38;;